Time;durP1;ratioP1;P1;durP2;ratioP2;P2;SDS_P1;SDS_P2;PMS_P1;PMS_P2;Temp;Humidity;BMP_temperature;BMP_pressure;BME280_temperature;BME280_humidity;BME280_pressure;Samples;Min_cycle;Max_cycle;Signal;HPM_P1;HPM_P2
2022/03/03 00:01:50;;;;;;;21.70;13.80;;;12.30;99.90;;;;;;5050963;28;20067;-74
2022/03/03 00:04:15;;;;;;;25.52;13.57;;;12.30;99.90;;;;;;5031653;28;20064;-76
2022/03/03 00:06:42;;;;;;;23.85;14.82;;;12.30;99.90;;;;;;5036179;28;20602;-74
2022/03/03 00:09:08;;;;;;;22.58;13.82;;;12.20;99.90;;;;;;5030478;28;20037;-75
2022/03/03 00:11:34;;;;;;;25.58;14.60;;;12.30;99.90;;;;;;5034080;28;20094;-75
2022/03/03 00:14:01;;;;;;;21.10;13.57;;;12.20;99.90;;;;;;5034530;28;20149;-75
2022/03/03 00:16:28;;;;;;;28.13;14.10;;;12.10;99.90;;;;;;5031623;28;20592;-76
2022/03/03 00:18:54;;;;;;;23.55;14.90;;;12.10;99.90;;;;;;5036037;28;20037;-74
2022/03/03 00:21:22;;;;;;;22.33;14.85;;;12.10;99.90;;;;;;5035538;28;20254;-74
2022/03/03 00:23:48;;;;;;;22.52;14.15;;;12.10;99.90;;;;;;5061002;28;20033;-76
2022/03/03 00:26:14;;;;;;;19.42;13.85;;;12.10;99.90;;;;;;5035255;28;20107;-74
2022/03/03 00:28:40;;;;;;;23.73;13.70;;;12.20;99.90;;;;;;5039035;28;20492;-75
2022/03/03 00:31:07;;;;;;;27.58;15.43;;;12.20;99.90;;;;;;5042578;28;20041;-75
2022/03/03 00:33:33;;;;;;;22.85;14.10;;;12.10;99.90;;;;;;5042450;28;20033;-75
2022/03/03 00:36:00;;;;;;;21.48;13.52;;;12.10;99.90;;;;;;5037929;28;20041;-75
2022/03/03 00:38:26;;;;;;;21.48;13.13;;;12.10;99.90;;;;;;5044009;28;20116;-73
2022/03/03 00:40:52;;;;;;;22.80;14.73;;;12.00;99.90;;;;;;5057083;28;20041;-75
2022/03/03 00:43:19;;;;;;;21.05;12.98;;;12.10;99.90;;;;;;5045479;28;20040;-76
2022/03/03 00:45:45;;;;;;;22.13;12.77;;;12.00;99.90;;;;;;5052174;28;20045;-75
2022/03/03 00:48:11;;;;;;;18.85;12.57;;;12.00;99.90;;;;;;5025415;28;20037;-74
2022/03/03 00:50:37;;;;;;;22.55;13.20;;;12.00;99.90;;;;;;5034879;28;20140;-75
2022/03/03 00:53:04;;;;;;;20.58;13.02;;;12.00;99.90;;;;;;5036675;28;20076;-75
2022/03/03 00:55:31;;;;;;;21.80;12.63;;;11.90;99.90;;;;;;5036404;28;20121;-75
2022/03/03 00:57:56;;;;;;;24.50;13.15;;;11.90;99.90;;;;;;5021224;28;20046;-74
2022/03/03 01:00:23;;;;;;;21.08;13.25;;;11.90;99.90;;;;;;5032053;28;20049;-76
2022/03/03 01:02:50;;;;;;;21.48;12.55;;;11.90;99.90;;;;;;5041846;28;20053;-75
2022/03/03 01:05:17;;;;;;;19.73;12.25;;;11.90;99.90;;;;;;5074029;28;20064;-75
2022/03/03 01:07:43;;;;;;;21.63;12.88;;;12.00;99.90;;;;;;5070001;28;20034;-75
2022/03/03 01:10:11;;;;;;;22.70;12.57;;;12.00;99.90;;;;;;5064684;28;20048;-75
2022/03/03 01:12:39;;;;;;;21.05;14.15;;;12.00;99.90;;;;;;5054161;28;20045;-76
2022/03/03 01:15:10;;;;;;;20.02;13.18;;;12.00;99.90;;;;;;5070744;28;20029;-75
2022/03/03 01:17:37;;;;;;;24.73;14.35;;;12.00;99.90;;;;;;5052160;28;20013;-74
2022/03/03 01:20:05;;;;;;;22.55;14.02;;;12.00;99.90;;;;;;5059007;28;20052;-76
2022/03/03 01:22:31;;;;;;;19.27;13.75;;;12.00;99.90;;;;;;5052177;28;20171;-74
2022/03/03 01:24:57;;;;;;;23.20;15.40;;;12.00;99.90;;;;;;5050447;28;20062;-73
2022/03/03 01:27:24;;;;;;;24.20;14.98;;;12.10;99.90;;;;;;5043261;28;20112;-74
2022/03/03 01:29:50;;;;;;;22.15;15.10;;;12.10;99.90;;;;;;5037983;28;20384;-73
2022/03/03 01:32:16;;;;;;;22.65;15.55;;;12.10;99.90;;;;;;5038763;28;20420;-74
2022/03/03 01:34:42;;;;;;;23.15;14.48;;;12.10;99.90;;;;;;5033778;28;20568;-74
2022/03/03 01:37:08;;;;;;;24.80;15.88;;;12.10;99.90;;;;;;5036703;28;20034;-75
2022/03/03 01:39:34;;;;;;;24.02;15.63;;;12.10;99.90;;;;;;5056834;28;20377;-74
2022/03/03 01:42:01;;;;;;;23.88;16.73;;;12.10;99.90;;;;;;5041135;28;20992;-74
2022/03/03 01:44:28;;;;;;;24.67;16.67;;;12.10;99.90;;;;;;5033669;28;20603;-74
2022/03/03 01:46:55;;;;;;;21.92;17.17;;;12.10;99.90;;;;;;5039181;28;20441;-75
2022/03/03 01:49:22;;;;;;;23.73;17.45;;;12.10;99.90;;;;;;5040738;28;20060;-75
2022/03/03 01:51:49;;;;;;;25.63;17.67;;;12.10;99.90;;;;;;5061166;28;20061;-75
2022/03/03 01:54:15;;;;;;;26.05;18.83;;;12.10;99.90;;;;;;5052755;28;20148;-74
2022/03/03 01:56:42;;;;;;;28.08;17.20;;;12.00;99.90;;;;;;5056807;28;20037;-74
2022/03/03 01:59:09;;;;;;;24.58;15.63;;;12.00;99.90;;;;;;5042667;28;20541;-74
2022/03/03 02:01:36;;;;;;;20.65;14.98;;;11.90;99.90;;;;;;5035622;28;20038;-75
2022/03/03 02:04:08;;;;;;;19.70;14.43;;;12.00;99.90;;;;;;5049093;28;20083;-73
2022/03/03 02:06:35;;;;;;;20.77;14.00;;;11.90;99.90;;;;;;5038016;28;20040;-74
2022/03/03 02:09:02;;;;;;;19.15;12.60;;;11.90;99.90;;;;;;5041359;28;20043;-74
2022/03/03 02:11:31;;;;;;;16.63;12.60;;;11.90;99.90;;;;;;5039151;28;20037;-75
2022/03/03 02:13:58;;;;;;;19.17;13.13;;;12.00;99.90;;;;;;5036337;28;20039;-74
2022/03/03 02:16:25;;;;;;;19.98;13.05;;;11.90;99.90;;;;;;5034920;28;20099;-74
2022/03/03 02:18:51;;;;;;;21.90;12.95;;;11.90;99.90;;;;;;5038530;28;20064;-75
2022/03/03 02:21:18;;;;;;;17.30;13.15;;;11.90;99.90;;;;;;5053986;28;20037;-75
2022/03/03 02:23:44;;;;;;;20.85;12.07;;;11.90;99.90;;;;;;5053760;28;20527;-73
2022/03/03 02:26:22;;;;;;;17.88;12.55;;;11.80;99.90;;;;;;5036197;28;20354;-75
2022/03/03 02:28:53;;;;;;;17.92;12.25;;;11.80;99.90;;;;;;5037745;28;20094;-76
2022/03/03 02:31:20;;;;;;;19.30;13.00;;;11.70;99.90;;;;;;5037277;28;20492;-74
2022/03/03 02:33:46;;;;;;;19.35;11.90;;;11.70;99.90;;;;;;5039411;28;20061;-74
2022/03/03 02:36:16;;;;;;;17.65;11.50;;;11.60;99.90;;;;;;5054271;28;20037;-75
2022/03/03 02:38:45;;;;;;;19.67;12.38;;;11.60;99.90;;;;;;5051716;28;20048;-75
2022/03/03 02:41:12;;;;;;;18.90;13.68;;;11.60;99.90;;;;;;5036503;28;20044;-74
2022/03/03 02:43:37;;;;;;;19.52;13.30;;;11.50;99.90;;;;;;5044883;28;20041;-75
2022/03/03 02:46:05;;;;;;;18.10;13.43;;;11.50;99.90;;;;;;5059281;28;20040;-74
2022/03/03 02:48:33;;;;;;;15.85;13.32;;;11.50;99.90;;;;;;5037826;28;20043;-74
2022/03/03 02:51:01;;;;;;;21.08;13.23;;;11.50;99.90;;;;;;5055184;28;20044;-75
2022/03/03 02:53:27;;;;;;;16.92;12.38;;;11.50;99.90;;;;;;5049716;28;20520;-74
2022/03/03 02:55:53;;;;;;;18.45;11.85;;;11.50;99.90;;;;;;5053957;28;20033;-74
2022/03/03 02:58:19;;;;;;;18.08;12.10;;;11.40;99.90;;;;;;5040839;28;20048;-74
2022/03/03 03:00:47;;;;;;;15.55;11.68;;;11.30;99.90;;;;;;5023281;28;20037;-74
2022/03/03 03:03:16;;;;;;;16.23;12.02;;;11.30;99.90;;;;;;5037815;28;20048;-75
2022/03/03 03:05:43;;;;;;;19.40;12.48;;;11.30;99.90;;;;;;5044530;28;20068;-73
2022/03/03 03:08:10;;;;;;;16.33;12.05;;;11.30;99.90;;;;;;5037833;28;20033;-75
2022/03/03 03:10:37;;;;;;;17.05;12.35;;;11.10;99.90;;;;;;5043195;28;20157;-75
2022/03/03 03:13:04;;;;;;;18.15;12.27;;;11.10;99.90;;;;;;5035568;28;20037;-73
2022/03/03 03:15:30;;;;;;;20.30;13.02;;;11.00;99.90;;;;;;5040537;28;20052;-74
2022/03/03 03:18:08;;;;;;;15.95;12.07;;;10.90;99.90;;;;;;5037735;28;20044;-74
2022/03/03 03:20:35;;;;;;;19.23;12.63;;;10.90;99.90;;;;;;5038511;28;20060;-75
2022/03/03 03:23:00;;;;;;;16.65;12.20;;;10.80;99.90;;;;;;5040949;28;20480;-74
2022/03/03 03:25:27;;;;;;;18.45;12.93;;;10.70;99.90;;;;;;5054551;28;20113;-75
2022/03/03 03:27:53;;;;;;;18.77;13.38;;;10.60;99.90;;;;;;5051383;28;20037;-74
2022/03/03 03:30:19;;;;;;;19.88;12.48;;;10.50;99.90;;;;;;5056030;28;20035;-74
2022/03/03 03:32:45;;;;;;;19.50;13.13;;;10.50;99.90;;;;;;5038479;28;20044;-73
2022/03/03 03:35:11;;;;;;;17.58;13.05;;;10.50;99.90;;;;;;5038081;28;20404;-73
2022/03/03 03:37:37;;;;;;;18.38;13.50;;;10.50;99.90;;;;;;5038135;28;20040;-74
2022/03/03 03:40:06;;;;;;;22.85;16.55;;;10.30;99.90;;;;;;5039869;28;20412;-74
2022/03/03 03:42:32;;;;;;;22.50;17.33;;;10.30;99.90;;;;;;5041178;28;20357;-74
2022/03/03 03:44:58;;;;;;;27.58;18.17;;;10.30;99.90;;;;;;5056756;28;20026;-74
2022/03/03 03:47:24;;;;;;;24.73;18.00;;;10.20;99.90;;;;;;5043354;28;20030;-73
2022/03/03 03:49:50;;;;;;;33.20;20.38;;;10.20;99.90;;;;;;5050821;28;20568;-75
2022/03/03 03:52:17;;;;;;;24.63;19.92;;;10.20;99.90;;;;;;5052737;28;20041;-74
2022/03/03 03:54:43;;;;;;;30.80;20.08;;;10.20;99.90;;;;;;5041309;28;20091;-74
2022/03/03 03:57:09;;;;;;;28.52;20.48;;;10.20;99.90;;;;;;5038297;28;20033;-74
2022/03/03 03:59:35;;;;;;;28.45;19.70;;;10.20;99.90;;;;;;5034695;28;20056;-75
2022/03/03 04:02:01;;;;;;;26.75;19.73;;;10.20;99.90;;;;;;5053090;28;20029;-74
2022/03/03 04:04:27;;;;;;;25.63;20.38;;;10.10;99.90;;;;;;5038558;28;20926;-74
2022/03/03 04:06:53;;;;;;;30.25;19.88;;;10.10;99.90;;;;;;5036185;28;20038;-75
2022/03/03 04:09:19;;;;;;;25.83;19.67;;;10.00;99.90;;;;;;5044872;28;20037;-74
2022/03/03 04:11:46;;;;;;;30.17;20.02;;;10.00;99.90;;;;;;5046762;28;20032;-74
2022/03/03 04:14:12;;;;;;;28.02;19.90;;;10.00;99.90;;;;;;5050070;28;20045;-73
2022/03/03 04:16:38;;;;;;;28.45;18.85;;;10.00;99.90;;;;;;5053942;28;20060;-74
2022/03/03 04:19:05;;;;;;;24.10;17.65;;;9.90;99.90;;;;;;5039304;28;20040;-75
2022/03/03 04:21:31;;;;;;;26.70;19.58;;;10.00;99.90;;;;;;5040614;28;20041;-74
2022/03/03 04:23:58;;;;;;;24.98;17.58;;;10.00;99.90;;;;;;5055434;28;20052;-75
2022/03/03 04:26:24;;;;;;;27.63;17.95;;;10.10;99.90;;;;;;5043514;28;20080;-74
2022/03/03 04:28:52;;;;;;;27.75;18.65;;;10.10;99.90;;;;;;5042721;28;20090;-74
2022/03/03 04:31:19;;;;;;;24.58;18.02;;;10.10;99.90;;;;;;5035742;28;20048;-74
2022/03/03 04:33:47;;;;;;;23.23;17.05;;;10.10;99.90;;;;;;5041224;28;20029;-74
2022/03/03 04:36:14;;;;;;;23.38;16.15;;;10.10;99.90;;;;;;5055921;28;20431;-74
2022/03/03 04:38:40;;;;;;;22.10;15.18;;;10.10;99.90;;;;;;5049222;28;20119;-74
2022/03/03 04:41:06;;;;;;;22.90;15.55;;;10.30;99.90;;;;;;5055600;28;20546;-74
2022/03/03 04:43:31;;;;;;;18.20;14.35;;;10.40;99.90;;;;;;5040580;28;20102;-74
2022/03/03 04:45:57;;;;;;;27.40;15.52;;;10.50;99.90;;;;;;5038073;28;20107;-75
2022/03/03 04:48:29;;;;;;;18.02;13.35;;;10.50;99.90;;;;;;5033617;28;20106;-75
2022/03/03 04:50:57;;;;;;;18.50;13.45;;;10.50;99.90;;;;;;5039462;28;20155;-75
2022/03/03 04:53:24;;;;;;;16.88;12.88;;;10.60;99.90;;;;;;5040932;28;20064;-74
2022/03/03 04:55:49;;;;;;;15.52;12.15;;;10.60;99.90;;;;;;5041220;28;20049;-75
2022/03/03 04:58:15;;;;;;;18.35;13.07;;;10.60;99.90;;;;;;5037751;28;20048;-74
2022/03/03 05:00:42;;;;;;;20.63;13.15;;;10.60;99.90;;;;;;5045380;28;20037;-75
2022/03/03 05:03:07;;;;;;;16.70;11.90;;;10.60;99.90;;;;;;5036338;28;20047;-74
2022/03/03 05:05:34;;;;;;;16.60;12.50;;;10.60;99.90;;;;;;5049095;28;20056;-73
2022/03/03 05:07:59;;;;;;;19.77;12.48;;;10.50;99.90;;;;;;5035155;28;20037;-73
2022/03/03 05:10:26;;;;;;;19.83;13.70;;;10.50;99.90;;;;;;5041133;28;20132;-74
2022/03/03 05:12:52;;;;;;;17.92;13.00;;;10.40;99.90;;;;;;5025205;28;21011;-74
2022/03/03 05:15:18;;;;;;;18.27;12.38;;;10.40;99.90;;;;;;5044203;28;20080;-74
2022/03/03 05:17:44;;;;;;;21.10;12.48;;;10.30;99.90;;;;;;5038729;28;20622;-74
2022/03/03 05:20:13;;;;;;;13.80;10.15;;;10.30;99.90;;;;;;5040699;28;20037;-74
2022/03/03 05:22:40;;;;;;;14.18;10.80;;;10.30;99.90;;;;;;5028127;28;20170;-73
2022/03/03 05:25:07;;;;;;;14.52;11.35;;;10.20;99.90;;;;;;5053857;28;20041;-73
2022/03/03 05:27:33;;;;;;;16.42;11.40;;;10.20;99.90;;;;;;5058719;28;20508;-73
2022/03/03 05:30:00;;;;;;;16.15;12.18;;;10.20;99.90;;;;;;5041908;28;20044;-75
2022/03/03 05:32:26;;;;;;;17.38;11.73;;;10.20;99.90;;;;;;5039235;28;20033;-73
2022/03/03 05:34:52;;;;;;;14.15;11.02;;;10.20;99.90;;;;;;5040496;28;20063;-73
2022/03/03 05:37:24;;;;;;;19.85;11.50;;;10.20;99.90;;;;;;5037411;28;20490;-75
2022/03/03 05:39:51;;;;;;;17.83;11.13;;;10.20;99.90;;;;;;5058986;28;20397;-74
2022/03/03 05:42:20;;;;;;;18.63;11.85;;;10.10;99.90;;;;;;5039735;28;20542;-74
2022/03/03 05:44:47;;;;;;;20.83;11.75;;;10.00;99.90;;;;;;5036893;28;20052;-75
2022/03/03 05:47:14;;;;;;;17.92;12.63;;;9.90;99.90;;;;;;5043886;28;20041;-75
2022/03/03 05:49:42;;;;;;;18.77;13.05;;;9.90;99.90;;;;;;5050085;28;20127;-75
2022/03/03 05:52:09;;;;;;;18.00;12.57;;;9.90;99.90;;;;;;5036374;28;20047;-74
2022/03/03 05:54:36;;;;;;;20.45;14.10;;;9.90;99.90;;;;;;5036481;28;20045;-74
2022/03/03 05:57:07;;;;;;;19.50;14.73;;;10.00;99.90;;;;;;5018670;28;20037;-74
2022/03/03 05:59:35;;;;;;;23.17;16.02;;;10.00;99.90;;;;;;5057044;28;20064;-75
2022/03/03 06:02:02;;;;;;;23.80;15.68;;;10.00;99.90;;;;;;5053806;28;20499;-75
2022/03/03 06:04:28;;;;;;;23.27;14.82;;;10.10;99.90;;;;;;5036695;28;20042;-75
2022/03/03 06:07:08;;;;;;;20.67;13.75;;;10.20;99.90;;;;;;5044657;28;20067;-74
2022/03/03 06:09:35;;;;;;;18.85;13.13;;;10.20;99.90;;;;;;5037287;28;20057;-74
2022/03/03 06:12:24;;;;;;;19.10;13.35;;;10.10;99.90;;;;;;5043072;28;20056;-74
2022/03/03 06:14:55;;;;;;;17.83;12.73;;;10.00;99.90;;;;;;5038445;28;20053;-75
2022/03/03 06:17:25;;;;;;;17.88;13.48;;;10.00;99.90;;;;;;5047887;28;20048;-74
2022/03/03 06:19:52;;;;;;;21.33;13.02;;;10.00;99.90;;;;;;5043143;28;20151;-75
2022/03/03 06:22:19;;;;;;;17.95;14.00;;;9.90;99.90;;;;;;5053734;28;20512;-74
2022/03/03 06:24:47;;;;;;;17.40;12.98;;;9.90;99.90;;;;;;5044094;28;20025;-74
2022/03/03 06:27:13;;;;;;;19.73;12.70;;;9.90;99.90;;;;;;5046173;28;20045;-74
2022/03/03 06:29:39;;;;;;;17.95;12.60;;;9.90;99.90;;;;;;5031357;28;20039;-73
2022/03/03 06:32:07;;;;;;;16.23;12.07;;;9.90;99.90;;;;;;5053069;28;20157;-75
2022/03/03 06:34:33;;;;;;;17.98;12.85;;;10.00;99.90;;;;;;5050677;28;20071;-75
2022/03/03 06:36:59;;;;;;;17.88;12.90;;;9.90;99.90;;;;;;5060617;28;20434;-74
2022/03/03 06:39:26;;;;;;;22.55;13.57;;;9.90;99.90;;;;;;5035101;28;20029;-75
2022/03/03 06:41:53;;;;;;;18.40;11.90;;;9.80;99.90;;;;;;5023009;28;20041;-76
2022/03/03 06:44:20;;;;;;;15.80;11.77;;;9.90;99.90;;;;;;5053351;28;20077;-75
2022/03/03 06:46:48;;;;;;;14.88;10.82;;;10.00;99.90;;;;;;5023989;28;20381;-75
2022/03/03 06:49:14;;;;;;;14.80;11.05;;;10.00;99.90;;;;;;5025681;28;20139;-74
2022/03/03 06:51:44;;;;;;;16.98;12.05;;;10.00;99.90;;;;;;5019433;28;20581;-76
2022/03/03 06:54:16;;;;;;;20.17;13.77;;;10.00;99.90;;;;;;5024123;28;20204;-73
2022/03/03 06:56:50;;;;;;;15.80;12.20;;;10.10;99.90;;;;;;5027078;28;20041;-75
2022/03/03 06:59:18;;;;;;;19.65;11.82;;;10.10;99.90;;;;;;5024742;28;20073;-74
2022/03/03 07:01:47;;;;;;;20.38;11.60;;;10.20;99.90;;;;;;5021524;28;20037;-75
2022/03/03 07:04:14;;;;;;;20.45;11.73;;;10.20;99.90;;;;;;5038895;28;20048;-75
2022/03/03 07:06:41;;;;;;;14.18;10.10;;;10.30;99.90;;;;;;5021148;28;20030;-74
2022/03/03 07:09:08;;;;;;;16.10;10.05;;;10.40;99.90;;;;;;5055280;28;20086;-75
2022/03/03 07:11:37;;;;;;;12.40;9.35;;;10.50;99.90;;;;;;5021229;28;20065;-74
2022/03/03 07:14:03;;;;;;;10.80;9.00;;;10.60;99.90;;;;;;5024090;28;20038;-74
2022/03/03 07:16:45;;;;;;;11.80;9.23;;;10.80;99.90;;;;;;5036506;28;20041;-76
2022/03/03 07:19:15;;;;;;;16.45;8.88;;;10.80;99.90;;;;;;5055686;28;20044;-73
2022/03/03 07:22:15;;;;;;;10.57;7.85;;;11.00;99.90;;;;;;5061414;28;20840;-76
2022/03/03 07:25:09;;;;;;;12.15;8.45;;;11.00;99.90;;;;;;5039494;28;20060;-74
2022/03/03 07:27:39;;;;;;;10.88;8.52;;;11.20;99.90;;;;;;5039967;28;20064;-75
2022/03/03 07:30:08;;;;;;;13.00;9.15;;;11.40;99.90;;;;;;5052122;28;20041;-75
2022/03/03 07:32:39;;;;;;;11.90;8.73;;;11.50;99.90;;;;;;5045652;28;20048;-75
2022/03/03 07:35:10;;;;;;;11.88;8.32;;;11.50;99.90;;;;;;5038120;28;20048;-75
2022/03/03 07:37:52;;;;;;;13.77;8.70;;;11.60;99.90;;;;;;5056125;28;20524;-74
2022/03/03 07:40:19;;;;;;;16.08;9.43;;;11.70;99.90;;;;;;5050784;28;20083;-74
2022/03/03 07:42:45;;;;;;;14.82;9.65;;;11.80;99.90;;;;;;5055458;28;20155;-75
2022/03/03 07:45:13;;;;;;;14.98;9.25;;;11.80;99.90;;;;;;5043557;28;20740;-75
2022/03/03 07:47:41;;;;;;;18.90;10.48;;;11.90;99.90;;;;;;5054738;28;20064;-74
2022/03/03 07:50:08;;;;;;;13.23;10.18;;;11.90;99.90;;;;;;5037735;28;20060;-74
2022/03/03 07:52:34;;;;;;;13.15;9.48;;;11.80;99.90;;;;;;5057715;28;20036;-76
2022/03/03 07:55:02;;;;;;;12.00;9.50;;;11.80;99.90;;;;;;5057432;28;20033;-74
2022/03/03 07:57:35;;;;;;;17.55;10.65;;;11.80;99.90;;;;;;5053704;28;20029;-76
2022/03/03 08:00:09;;;;;;;14.82;9.95;;;11.80;99.90;;;;;;5053239;28;20553;-74
2022/03/03 08:02:39;;;;;;;17.52;10.57;;;11.80;99.90;;;;;;5038151;28;20037;-76
2022/03/03 08:05:05;;;;;;;15.63;9.98;;;11.80;99.90;;;;;;5040614;28;20048;-76
2022/03/03 08:07:54;;;;;;;15.63;9.95;;;11.90;99.90;;;;;;5042051;28;20041;-77
2022/03/03 08:10:24;;;;;;;14.00;10.02;;;12.00;99.90;;;;;;5057913;28;20041;-75
2022/03/03 08:12:55;;;;;;;13.43;9.68;;;12.10;99.90;;;;;;5041139;28;20163;-75
2022/03/03 08:15:22;;;;;;;12.30;8.75;;;12.20;99.90;;;;;;5040713;28;20048;-74
2022/03/03 08:17:53;;;;;;;11.43;8.82;;;12.30;99.90;;;;;;5059019;28;20037;-75
2022/03/03 08:20:20;;;;;;;13.45;9.27;;;12.30;99.90;;;;;;5054171;28;20029;-74
2022/03/03 08:22:47;;;;;;;10.43;8.75;;;12.40;99.90;;;;;;5040548;28;20033;-75
2022/03/03 08:25:15;;;;;;;12.82;8.93;;;12.40;99.90;;;;;;5039565;28;20034;-75
2022/03/03 08:27:42;;;;;;;11.80;9.48;;;12.40;99.90;;;;;;5051013;28;20029;-75
2022/03/03 08:30:10;;;;;;;12.73;9.00;;;12.50;99.90;;;;;;5024244;28;20025;-75
2022/03/03 08:32:44;;;;;;;12.88;8.95;;;12.50;99.90;;;;;;5025284;28;20481;-75
2022/03/03 08:35:27;;;;;;;13.65;9.00;;;12.60;99.90;;;;;;5032444;28;20051;-76
2022/03/03 08:38:03;;;;;;;18.08;9.57;;;13.10;99.90;;;;;;5046780;28;20460;-75
2022/03/03 08:40:31;;;;;;;12.57;9.20;;;15.50;99.90;;;;;;5041409;28;20047;-76
2022/03/03 08:43:00;;;;;;;12.65;8.25;;;16.40;99.90;;;;;;5041706;28;20088;-76
2022/03/03 08:45:29;;;;;;;13.40;8.88;;;16.20;99.90;;;;;;5031286;28;21045;-75
2022/03/03 08:48:06;;;;;;;11.50;8.05;;;17.00;99.90;;;;;;5048284;28;20151;-75
2022/03/03 08:50:38;;;;;;;12.30;8.55;;;18.00;99.90;;;;;;5052288;28;20274;-78
2022/03/03 08:53:06;;;;;;;11.20;8.45;;;18.50;99.90;;;;;;5070757;28;20037;-77
2022/03/03 08:55:35;;;;;;;13.27;7.97;;;18.90;99.30;;;;;;5010610;28;20107;-76
2022/03/03 08:58:04;;;;;;;10.38;7.78;;;19.10;98.80;;;;;;5046846;28;20111;-79
2022/03/03 09:00:30;;;;;;;12.80;8.25;;;19.40;98.00;;;;;;5027267;28;20491;-76
2022/03/03 09:02:59;;;;;;;13.88;7.55;;;19.40;98.20;;;;;;5044811;28;20033;-76
2022/03/03 09:05:26;;;;;;;9.57;7.40;;;19.30;97.80;;;;;;5044048;28;20052;-76
2022/03/03 09:07:53;;;;;;;8.63;7.00;;;19.50;97.60;;;;;;5057856;28;20037;-74
2022/03/03 09:10:19;;;;;;;14.05;7.68;;;19.90;97.00;;;;;;5041992;28;20395;-76
2022/03/03 09:12:46;;;;;;;12.50;6.72;;;19.40;97.70;;;;;;5057967;28;20044;-76
2022/03/03 09:15:12;;;;;;;11.68;6.97;;;19.70;97.30;;;;;;5052832;28;20088;-75
2022/03/03 09:17:40;;;;;;;12.52;7.53;;;20.10;96.60;;;;;;5044733;28;20033;-75
2022/03/03 09:20:09;;;;;;;16.00;7.50;;;19.90;97.40;;;;;;5042615;28;20038;-75
2022/03/03 09:22:35;;;;;;;11.90;6.97;;;19.30;97.30;;;;;;5054590;28;20045;-76
2022/03/03 09:25:05;;;;;;;10.73;7.20;;;19.80;97.30;;;;;;5031763;28;20458;-76
2022/03/03 09:27:33;;;;;;;8.95;7.07;;;19.20;97.40;;;;;;5054627;28;20115;-75
2022/03/03 09:29:59;;;;;;;13.82;7.65;;;19.10;98.20;;;;;;5056125;28;20341;-75
2022/03/03 09:32:24;;;;;;;10.75;6.68;;;18.80;98.80;;;;;;5052809;28;20040;-76
2022/03/03 09:34:51;;;;;;;10.40;6.97;;;19.30;98.20;;;;;;5045973;28;20052;-75
2022/03/03 09:37:17;;;;;;;12.32;7.45;;;18.80;98.70;;;;;;5038577;28;20489;-74
2022/03/03 09:39:46;;;;;;;11.75;7.45;;;18.80;98.60;;;;;;5053871;28;20526;-75
2022/03/03 09:42:13;;;;;;;8.85;6.90;;;18.50;98.90;;;;;;5043920;28;20101;-76
2022/03/03 09:44:40;;;;;;;13.02;7.70;;;18.70;99.20;;;;;;5053902;28;20117;-75
2022/03/03 09:47:06;;;;;;;11.02;7.18;;;18.70;98.90;;;;;;5058606;28;20064;-76
2022/03/03 09:49:32;;;;;;;11.73;7.47;;;18.50;98.80;;;;;;5040909;28;20064;-75
2022/03/03 09:51:58;;;;;;;13.15;6.70;;;17.70;99.80;;;;;;5032103;28;20527;-75
2022/03/03 09:54:25;;;;;;;9.13;6.85;;;17.50;99.90;;;;;;5032706;28;20045;-76
2022/03/03 09:56:51;;;;;;;10.38;6.93;;;16.60;99.90;;;;;;5030920;28;20193;-75
2022/03/03 09:59:18;;;;;;;13.10;7.35;;;15.70;99.90;;;;;;5044280;28;20041;-77
2022/03/03 10:01:47;;;;;;;12.07;7.10;;;15.90;99.90;;;;;;5030868;28;20090;-76
2022/03/03 10:04:24;;;;;;;12.55;7.55;;;16.00;99.90;;;;;;5032773;28;20041;-75
2022/03/03 10:06:51;;;;;;;17.30;7.80;;;15.30;99.90;;;;;;5033834;28;20088;-74
2022/03/03 10:09:18;;;;;;;14.32;8.13;;;15.30;99.90;;;;;;5019152;28;20022;-75
2022/03/03 10:11:48;;;;;;;15.48;8.45;;;15.40;99.90;;;;;;5030139;28;20031;-76
2022/03/03 10:14:38;;;;;;;16.77;8.55;;;15.50;99.90;;;;;;5035671;28;20135;-76
2022/03/03 10:17:06;;;;;;;17.98;8.63;;;15.40;99.90;;;;;;5050027;28;20075;-76
2022/03/03 10:19:32;;;;;;;13.35;8.02;;;15.40;99.90;;;;;;5033449;28;20886;-76
2022/03/03 10:22:00;;;;;;;13.80;8.13;;;15.30;99.90;;;;;;5033702;28;20049;-76
2022/03/03 10:24:29;;;;;;;11.70;7.97;;;14.90;99.90;;;;;;5047556;28;20074;-75
2022/03/03 10:27:05;;;;;;;20.13;8.32;;;14.80;99.90;;;;;;5032164;28;20049;-74
2022/03/03 10:29:31;;;;;;;14.48;8.27;;;14.80;99.90;;;;;;5019799;28;20061;-75
2022/03/03 10:31:58;;;;;;;18.27;8.73;;;14.90;99.90;;;;;;5005474;28;20076;-74
2022/03/03 10:34:37;;;;;;;12.38;8.10;;;14.60;99.90;;;;;;5023835;28;20391;-76
2022/03/03 10:37:16;;;;;;;14.25;7.90;;;15.70;99.90;;;;;;5032736;28;20516;-75
2022/03/03 10:39:49;;;;;;;12.20;7.57;;;16.10;99.90;;;;;;5018354;28;20057;-76
2022/03/03 10:42:20;;;;;;;10.95;6.47;;;16.50;99.90;;;;;;5047827;28;20136;-76
2022/03/03 10:44:48;;;;;;;14.00;7.80;;;16.70;99.90;;;;;;5036789;28;20362;-76
2022/03/03 10:47:24;;;;;;;12.00;7.45;;;16.70;99.90;;;;;;5035480;28;20029;-76
2022/03/03 10:49:54;;;;;;;10.48;7.45;;;17.00;99.90;;;;;;5052870;28;20481;-75
2022/03/03 10:52:26;;;;;;;10.65;7.00;;;16.50;99.90;;;;;;5044698;28;20037;-75
2022/03/03 10:54:57;;;;;;;16.27;6.87;;;17.50;99.80;;;;;;5034653;28;20037;-75
2022/03/03 10:57:49;;;;;;;11.85;7.50;;;17.90;99.50;;;;;;5028694;28;20438;-75
2022/03/03 11:00:24;;;;;;;11.52;5.40;;;17.70;99.30;;;;;;5033997;28;20044;-75
2022/03/03 11:02:54;;;;;;;10.07;4.75;;;18.30;98.20;;;;;;5027548;28;20128;-76
2022/03/03 11:05:23;;;;;;;9.70;5.03;;;18.30;98.30;;;;;;5034218;28;20037;-76
2022/03/03 11:07:51;;;;;;;9.32;4.50;;;18.50;97.60;;;;;;5033679;28;20040;-75
2022/03/03 11:10:24;;;;;;;11.32;5.28;;;18.40;97.50;;;;;;5028586;28;20037;-75
2022/03/03 11:12:51;;;;;;;8.75;4.50;;;18.50;97.00;;;;;;5035723;28;20109;-76
2022/03/03 11:15:20;;;;;;;11.38;5.07;;;18.20;97.70;;;;;;5046376;28;20041;-76
2022/03/03 11:17:47;;;;;;;9.02;4.85;;;18.20;97.70;;;;;;5031098;28;20030;-77
2022/03/03 11:20:15;;;;;;;13.80;5.50;;;17.80;98.00;;;;;;5032461;28;20065;-76
2022/03/03 11:22:44;;;;;;;8.32;5.38;;;18.30;97.90;;;;;;5050557;28;20111;-77
2022/03/03 11:25:35;;;;;;;7.65;4.75;;;18.50;97.60;;;;;;5045330;28;20045;-76
2022/03/03 11:28:14;;;;;;;7.45;4.80;;;18.20;97.70;;;;;;5031868;28;20178;-76
2022/03/03 11:30:46;;;;;;;9.55;5.40;;;18.80;97.30;;;;;;5040705;28;20100;-76
2022/03/03 11:33:26;;;;;;;8.18;5.45;;;18.40;97.00;;;;;;5033355;28;20071;-76
2022/03/03 11:35:58;;;;;;;15.45;5.40;;;19.00;97.20;;;;;;5045235;28;20042;-75
2022/03/03 11:38:26;;;;;;;;;;;19.00;97.10;;;;;;5037497;28;20437;-75
2022/03/03 11:41:00;;;;;;;14.07;6.20;;;18.00;97.60;;;;;;5011308;28;19968;-76
2022/03/03 11:43:27;;;;;;;9.60;5.63;;;18.80;97.30;;;;;;5030955;28;20400;-76
2022/03/03 11:45:59;;;;;;;20.13;6.43;;;17.80;97.30;;;;;;5044301;28;20045;-76
2022/03/03 11:48:38;;;;;;;10.82;5.72;;;18.70;97.60;;;;;;5021904;28;20086;-76
2022/03/03 11:51:42;;;;;;;8.10;4.97;;;18.90;96.70;;;;;;5032641;28;20040;-77
2022/03/03 11:54:13;;;;;;;11.82;4.13;;;19.20;96.80;;;;;;4967171;28;20026;-76
2022/03/03 11:57:06;;;;;;;7.28;3.80;;;18.70;96.80;;;;;;5036963;28;20076;-76
2022/03/03 11:59:49;;;;;;;6.47;3.75;;;19.00;96.40;;;;;;5024361;28;20047;-77
2022/03/03 12:02:33;;;;;;;11.65;4.25;;;19.20;96.00;;;;;;5021273;28;20042;-76
2022/03/03 12:05:36;;;;;;;10.98;4.07;;;20.10;95.30;;;;;;5026461;28;20036;-77
2022/03/03 12:08:14;;;;;;;8.40;3.45;;;20.30;94.70;;;;;;4994715;28;20045;-76
2022/03/03 12:10:59;;;;;;;6.68;3.13;;;20.90;94.10;;;;;;5015948;28;20056;-77
2022/03/03 12:13:34;;;;;;;9.10;2.85;;;18.20;95.60;;;;;;5016172;28;20037;-77
2022/03/03 12:16:19;;;;;;;4.13;2.28;;;19.80;94.90;;;;;;5015927;28;20084;-76
2022/03/03 12:18:56;;;;;;;7.25;3.22;;;19.70;94.60;;;;;;5060590;28;20036;-77
2022/03/03 12:21:25;;;;;;;12.38;2.58;;;19.60;94.10;;;;;;5036220;28;20052;-76
2022/03/03 12:24:14;;;;;;;10.02;2.60;;;20.60;93.70;;;;;;5037723;28;20037;-77
2022/03/03 12:26:55;;;;;;;8.55;2.85;;;19.00;94.30;;;;;;5038070;28;20044;-78
2022/03/03 12:29:42;;;;;;;8.05;2.72;;;19.50;94.70;;;;;;5052229;28;20044;-78
2022/03/03 12:32:34;;;;;;;6.55;2.28;;;19.30;95.00;;;;;;5031881;28;20035;-77
2022/03/03 12:35:20;;;;;;;7.88;2.25;;;19.10;94.60;;;;;;5040313;28;20037;-76
2022/03/03 12:37:49;;;;;;;6.22;2.63;;;19.10;94.00;;;;;;5045718;28;20037;-76
2022/03/03 12:40:22;;;;;;;6.80;2.55;;;18.90;94.20;;;;;;5043388;28;20052;-77
2022/03/03 12:42:49;;;;;;;6.18;2.40;;;19.40;94.10;;;;;;5073383;28;20057;-77
2022/03/03 12:45:18;;;;;;;7.32;2.17;;;19.80;93.70;;;;;;5069663;28;20049;-77